ETNG

Geilenkirchen NATO Air Base

Airport
ICAO code
ETNG
Summary
ICAO Region
EUR
ICAO Territory
Location

Geilenkirchen, North Rhine-Westphalia,

Coordinates
50° 57' 38" N , 6° 2' 33" E
Metar
ETNG 190150Z 24012G23KT 9999 BKN030 07/04 Q1014

Description

NATO Air Base Geilenkirchen is located near Geilenkirchen, North Rhine-Westphalia, Germany.

Runways

Designator Length Width Surface Rops
9/27 3051 45 CON Yes/Yes

Airport map

Aerial View

SKYbrary Partners:

Safety knowledge contributed by: